createdAt,value
2019-05-18T00:04:13.334Z,15.87
2019-05-18T00:09:07.398Z,18.93
2019-05-18T00:14:01.574Z,24.70
2019-05-18T00:18:55.540Z,16.37
2019-05-18T00:23:49.519Z,16.70
2019-05-18T00:28:43.608Z,17.50
2019-05-18T00:33:37.581Z,19.10
2019-05-18T00:38:31.552Z,15.57
2019-05-18T00:43:25.653Z,14.47
2019-05-18T00:48:19.636Z,14.03
2019-05-18T00:53:13.579Z,12.70
2019-05-18T00:58:07.542Z,15.07
2019-05-18T01:03:01.521Z,15.43
2019-05-18T01:07:55.469Z,15.00
2019-05-18T01:12:49.442Z,15.80
2019-05-18T01:17:56.432Z,15.10
2019-05-18T01:22:39.402Z,15.87
2019-05-18T01:27:33.521Z,16.27
2019-05-18T01:32:27.518Z,18.53
2019-05-18T01:37:21.500Z,16.13
2019-05-18T01:42:15.457Z,15.47
2019-05-18T01:47:09.409Z,15.47
2019-05-18T01:52:03.498Z,18.10
2019-05-18T01:56:57.432Z,17.60
2019-05-18T02:01:51.406Z,19.10
2019-05-18T02:06:47.289Z,15.73
2019-05-18T02:11:41.346Z,15.70
2019-05-18T02:16:35.415Z,17.33
2019-05-18T02:21:29.384Z,17.37
2019-05-18T02:26:23.381Z,17.10
2019-05-18T02:31:17.442Z,15.77
2019-05-18T02:36:11.500Z,17.13
2019-05-18T02:41:05.429Z,16.77
2019-05-18T02:45:59.396Z,15.67
2019-05-18T02:50:53.357Z,18.10
2019-05-18T02:55:47.366Z,15.40
2019-05-18T03:00:41.505Z,18.07
2019-05-18T03:05:35.472Z,16.53
2019-05-18T03:10:29.457Z,16.47
2019-05-18T03:15:23.424Z,19.43
2019-05-18T03:20:17.479Z,15.80
2019-05-18T03:25:11.560Z,16.63
2019-05-18T03:30:06.047Z,21.93
2019-05-18T03:34:59.999Z,17.00
2019-05-18T03:39:54.046Z,19.20
2019-05-18T03:44:48.018Z,19.90
2019-05-18T03:49:42.198Z,18.83
2019-05-18T03:54:36.193Z,20.77
2019-05-18T03:59:30.260Z,18.33
2019-05-18T04:04:24.209Z,17.77
2019-05-18T04:09:18.200Z,18.90
2019-05-18T04:14:12.279Z,19.77
2019-05-18T04:19:06.623Z,19.03
2019-05-18T04:24:00.611Z,17.83
2019-05-18T04:28:54.629Z,19.93
2019-05-18T04:33:48.613Z,21.20
2019-05-18T04:38:42.596Z,18.70
2019-05-18T04:43:36.551Z,17.57
2019-05-18T04:48:30.530Z,18.47
2019-05-18T04:53:24.484Z,16.47
2019-05-18T04:58:18.520Z,16.03
2019-05-18T05:03:12.857Z,19.23
2019-05-18T05:08:07.099Z,16.43
2019-05-18T05:13:01.051Z,17.80
2019-05-18T05:17:55.248Z,17.23
2019-05-18T05:22:49.245Z,14.03
2019-05-18T05:27:44.857Z,17.57
2019-05-18T05:32:38.838Z,16.80
2019-05-18T05:37:32.805Z,16.00
2019-05-18T05:42:26.743Z,16.93
2019-05-18T05:47:20.726Z,16.27
2019-05-18T05:52:14.649Z,17.83
2019-05-18T05:57:08.615Z,17.83
2019-05-18T06:02:02.970Z,19.53
2019-05-18T06:06:57.011Z,18.60
2019-05-18T06:11:50.978Z,19.40
2019-05-18T06:16:47.796Z,16.93
2019-05-18T06:21:41.759Z,19.53
2019-05-18T06:26:35.750Z,18.33
2019-05-18T06:31:29.711Z,17.53
2019-05-18T06:36:23.675Z,17.40
2019-05-18T06:41:17.657Z,14.53
2019-05-18T06:46:11.620Z,15.00
2019-05-18T06:51:07.516Z,15.43
2019-05-18T06:56:01.997Z,13.72
2019-05-18T07:00:56.000Z,15.23
2019-05-18T07:05:50.019Z,15.35
2019-05-18T07:10:44.014Z,17.30
2019-05-18T07:15:37.950Z,13.65
2019-05-18T07:20:31.937Z,12.65
2019-05-18T07:25:26.030Z,15.48
2019-05-18T07:30:19.991Z,17.02
2019-05-18T07:35:15.866Z,13.30
2019-05-18T07:40:10.039Z,14.38
2019-05-18T07:45:05.638Z,13.30
2019-05-18T07:49:59.637Z,12.93
2019-05-18T07:54:53.606Z,12.25
2019-05-18T07:59:47.700Z,11.28
2019-05-18T08:04:41.714Z,12.53
2019-05-18T08:09:35.701Z,11.90
2019-05-18T08:14:29.800Z,10.13
2019-05-18T08:19:23.773Z,9.48
2019-05-18T08:24:17.927Z,9.15
2019-05-18T08:29:11.929Z,11.55
2019-05-18T08:34:06.004Z,10.50
2019-05-18T08:39:00.091Z,10.18
2019-05-18T08:43:54.103Z,10.82
2019-05-18T08:48:48.390Z,11.25
2019-05-18T08:53:42.364Z,10.38
2019-05-18T08:58:36.348Z,11.48
2019-05-18T09:03:30.356Z,11.70
2019-05-18T09:08:24.337Z,12.88
2019-05-18T09:13:18.301Z,12.33
2019-05-18T09:18:12.244Z,13.40
2019-05-18T09:23:06.321Z,11.33
2019-05-18T09:28:00.354Z,10.35
2019-05-18T09:32:54.430Z,10.70
2019-05-18T09:37:48.496Z,9.68
2019-05-18T09:42:42.565Z,10.82
2019-05-18T09:47:36.650Z,9.10
2019-05-18T09:52:44.045Z,8.43
2019-05-18T09:57:26.597Z,9.53
2019-05-18T10:02:20.583Z,11.38
2019-05-18T10:07:14.553Z,14.30
2019-05-18T10:12:08.669Z,13.45
2019-05-18T10:17:02.752Z,12.43
2019-05-18T10:21:56.742Z,10.55
2019-05-18T10:26:50.856Z,12.07
2019-05-18T10:31:45.039Z,11.10
2019-05-18T10:36:39.027Z,10.43
2019-05-18T10:41:33.144Z,10.30
2019-05-18T10:46:27.219Z,9.48
2019-05-18T10:51:21.185Z,10.85
2019-05-18T10:56:15.183Z,10.10
2019-05-18T11:01:09.266Z,11.03
2019-05-18T11:06:03.361Z,10.60
2019-05-18T11:10:57.536Z,9.73
2019-05-18T11:15:51.639Z,8.58
2019-05-18T11:20:45.633Z,8.35
2019-05-18T11:25:40.354Z,10.78
2019-05-18T11:30:34.421Z,8.33
2019-05-18T11:35:28.415Z,7.37
2019-05-18T11:40:22.767Z,7.80
2019-05-18T11:45:17.344Z,6.85
2019-05-18T11:50:12.092Z,7.90
2019-05-18T11:55:06.793Z,8.33
2019-05-18T12:00:00.981Z,8.83
2019-05-18T12:04:55.081Z,8.03
2019-05-18T12:09:49.339Z,8.05
2019-05-18T12:14:43.411Z,7.15
2019-05-18T12:19:37.402Z,7.00
2019-05-18T12:24:31.489Z,6.20
2019-05-18T12:29:25.475Z,6.67
2019-05-18T12:34:19.531Z,3.75
2019-05-18T12:39:13.637Z,4.95
2019-05-18T12:44:07.770Z,4.65
2019-05-18T12:49:01.898Z,5.20
2019-05-18T12:53:56.032Z,5.62
2019-05-18T12:58:50.101Z,6.67
2019-05-18T13:03:44.106Z,5.50
2019-05-18T13:08:38.187Z,5.80
2019-05-18T13:13:32.184Z,5.65
2019-05-18T13:18:26.261Z,5.03
2019-05-18T13:23:20.520Z,4.47
2019-05-18T13:28:14.526Z,5.60
2019-05-18T13:33:08.686Z,5.55
2019-05-18T13:38:02.832Z,5.47
2019-05-18T13:42:56.799Z,5.00
2019-05-18T13:47:50.888Z,4.58
2019-05-18T13:52:44.975Z,4.25
2019-05-18T13:57:38.939Z,6.95
2019-05-18T14:02:33.121Z,12.75
2019-05-18T14:07:27.052Z,6.75
2019-05-18T14:12:21.011Z,5.28
2019-05-18T14:17:15.025Z,5.33
2019-05-18T14:22:09.123Z,4.05
2019-05-18T14:27:03.373Z,6.33
2019-05-18T14:31:57.321Z,5.08
2019-05-18T14:36:51.342Z,5.80
2019-05-18T14:41:45.565Z,3.75
2019-05-18T14:46:39.638Z,4.45
2019-05-18T14:51:33.844Z,3.30
2019-05-18T14:56:28.018Z,4.62
2019-05-18T15:01:22.114Z,2.30
2019-05-18T15:06:16.182Z,3.65
2019-05-18T15:11:10.148Z,2.12
2019-05-18T15:16:04.324Z,3.80
2019-05-18T15:20:58.416Z,2.22
2019-05-18T15:25:52.504Z,2.15
2019-05-18T15:30:46.555Z,2.20
2019-05-18T15:35:40.591Z,1.65
2019-05-18T15:40:34.691Z,2.92
2019-05-18T15:45:28.706Z,2.65
2019-05-18T15:50:22.958Z,3.33
2019-05-18T15:55:18.141Z,2.12
2019-05-18T16:00:13.092Z,2.02
2019-05-18T16:05:07.685Z,2.42
2019-05-18T16:10:02.001Z,8.40
2019-05-18T16:14:56.107Z,4.12
2019-05-18T16:19:52.236Z,5.78
2019-05-18T16:24:46.335Z,1.90
2019-05-18T16:29:40.325Z,2.90
2019-05-18T16:34:34.281Z,2.40
2019-05-18T16:39:28.263Z,2.05
2019-05-18T16:44:22.237Z,16.50
2019-05-18T16:49:16.296Z,48.35
2019-05-18T16:54:10.316Z,19.23
2019-05-18T16:59:04.299Z,4.55
2019-05-18T17:03:58.402Z,7.90
2019-05-18T17:08:52.546Z,23.07
2019-05-18T17:13:46.678Z,6.78
2019-05-18T17:18:40.706Z,8.10
2019-05-18T17:23:34.712Z,8.20
2019-05-18T17:28:28.915Z,31.23
2019-05-18T17:33:22.906Z,4.28
2019-05-18T17:38:19.039Z,5.75
2019-05-18T17:43:14.813Z,4.12
2019-05-18T17:48:08.783Z,4.97
2019-05-18T17:53:03.168Z,4.58
2019-05-18T17:57:57.357Z,4.62
2019-05-18T18:02:51.479Z,4.95
2019-05-18T18:07:45.541Z,4.75
2019-05-18T18:12:41.673Z,5.08
2019-05-18T18:17:35.756Z,4.33
2019-05-18T18:22:29.781Z,4.62
2019-05-18T18:27:25.891Z,4.80
2019-05-18T18:32:19.671Z,4.67
2019-05-18T18:37:13.872Z,4.67
2019-05-18T18:42:07.970Z,5.28
2019-05-18T18:47:01.990Z,5.70
2019-05-18T18:51:56.339Z,9.33
2019-05-18T18:56:50.575Z,7.85
2019-05-18T19:01:44.565Z,7.45
2019-05-18T19:06:38.586Z,7.58
2019-05-18T19:11:32.572Z,6.00
2019-05-18T19:16:26.697Z,5.85
2019-05-18T19:21:20.701Z,7.58
2019-05-18T19:26:14.654Z,9.55
2019-05-18T19:31:08.767Z,7.35
2019-05-18T19:36:02.774Z,8.08
2019-05-18T19:40:56.776Z,7.30
2019-05-18T19:45:50.847Z,7.95
2019-05-18T19:50:44.881Z,7.87
2019-05-18T19:55:38.926Z,7.25
2019-05-18T20:00:32.998Z,8.10
2019-05-18T20:05:27.013Z,6.97
2019-05-18T20:10:21.325Z,8.00
2019-05-18T20:15:17.448Z,8.13
2019-05-18T20:20:12.035Z,13.90
2019-05-18T20:25:06.226Z,10.15
2019-05-18T20:30:00.327Z,10.70
2019-05-18T20:34:54.476Z,13.70
2019-05-18T20:39:48.786Z,10.75
2019-05-18T20:44:42.894Z,11.48
2019-05-18T20:49:36.882Z,20.70
2019-05-18T20:54:30.856Z,17.82
2019-05-18T20:59:24.939Z,20.10
2019-05-18T21:04:19.010Z,20.57
2019-05-18T21:09:13.210Z,16.35
2019-05-18T21:14:07.317Z,17.12
2019-05-18T21:19:01.349Z,20.10
2019-05-18T21:23:55.526Z,24.40
2019-05-18T21:28:56.436Z,24.60
2019-05-18T21:33:45.596Z,30.52
2019-05-18T21:38:39.640Z,27.65
2019-05-18T21:43:33.652Z,26.42
2019-05-18T21:48:27.754Z,28.77
2019-05-18T21:53:21.873Z,23.62
2019-05-18T21:58:15.852Z,25.68
2019-05-18T22:03:09.847Z,25.68
2019-05-18T22:08:03.839Z,23.02
2019-05-18T22:12:57.803Z,24.27
2019-05-18T22:18:03.839Z,21.60
2019-05-18T22:22:57.810Z,24.60
2019-05-18T22:27:51.815Z,24.90
2019-05-18T22:32:45.820Z,26.25
2019-05-18T22:37:39.850Z,21.20
2019-05-18T22:42:33.819Z,19.20
2019-05-18T22:47:27.775Z,16.65
2019-05-18T22:52:21.886Z,15.65
2019-05-18T22:57:15.886Z,19.62
2019-05-18T23:02:09.971Z,21.73
2019-05-18T23:07:03.932Z,26.27
2019-05-18T23:11:57.930Z,27.10
2019-05-18T23:16:51.941Z,34.90
2019-05-18T23:21:45.913Z,33.53
2019-05-18T23:26:39.897Z,36.42
2019-05-18T23:31:33.976Z,34.38
2019-05-18T23:36:29.892Z,32.80
2019-05-18T23:41:23.865Z,32.63
2019-05-18T23:46:17.954Z,33.20
2019-05-18T23:51:11.942Z,36.90
2019-05-18T23:56:05.907Z,30.72
